Time;durP1;ratioP1;P1;durP2;ratioP2;P2;SDS_P1;SDS_P2;PMS_P1;PMS_P2;Temp;Humidity;BMP_temperature;BMP_pressure;BME280_temperature;BME280_humidity;BME280_pressure;Samples;Min_cycle;Max_cycle;Signal;HPM_P1;HPM_P2
2022/03/15 00:01:21;;;;;;;0.50;0.50;;;2.40;99.90;;;;;;4961327;28;20039;-69
2022/03/15 00:03:48;;;;;;;0.40;0.40;;;2.40;99.90;;;;;;4957016;28;20039;-69
2022/03/15 00:06:14;;;;;;;0.30;0.30;;;2.40;99.90;;;;;;4942028;29;20071;-69
2022/03/15 00:08:40;;;;;;;0.68;0.68;;;2.40;99.90;;;;;;4964912;28;20069;-69
2022/03/15 00:11:06;;;;;;;0.47;0.47;;;2.50;99.90;;;;;;4965586;28;20043;-69
2022/03/15 00:13:38;;;;;;;0.82;0.82;;;2.50;99.90;;;;;;4949299;28;20179;-69
2022/03/15 00:16:04;;;;;;;0.73;0.57;;;2.50;99.90;;;;;;4966295;28;20411;-68
2022/03/15 00:18:30;;;;;;;2.00;1.75;;;2.60;99.90;;;;;;4937500;28;20432;-69
2022/03/15 00:21:02;;;;;;;0.70;0.70;;;2.70;99.90;;;;;;4946837;29;20043;-69
2022/03/15 00:23:28;;;;;;;0.70;0.70;;;2.80;99.90;;;;;;4944710;28;20057;-69
2022/03/15 00:25:54;;;;;;;0.70;0.70;;;2.80;99.90;;;;;;4962073;28;20109;-69
2022/03/15 00:28:24;;;;;;;2.72;1.20;;;2.80;99.90;;;;;;4965956;28;20047;-69
2022/03/15 00:30:50;;;;;;;0.57;0.57;;;2.70;99.90;;;;;;4971435;28;20114;-69
2022/03/15 00:33:16;;;;;;;0.40;0.40;;;2.70;99.90;;;;;;4965667;28;20149;-69
2022/03/15 00:35:42;;;;;;;0.45;0.45;;;2.60;99.90;;;;;;4978291;28;20122;-69
2022/03/15 00:38:08;;;;;;;0.73;0.73;;;2.60;99.90;;;;;;4950683;28;20396;-69
2022/03/15 00:40:35;;;;;;;1.48;0.57;;;2.50;99.90;;;;;;4984643;28;20059;-69
2022/03/15 00:43:01;;;;;;;0.40;0.40;;;2.50;99.90;;;;;;4940467;28;20468;-69
2022/03/15 00:45:30;;;;;;;0.40;0.40;;;2.50;99.90;;;;;;4959694;28;20507;-69
2022/03/15 00:47:57;;;;;;;0.38;0.38;;;2.40;99.90;;;;;;4962747;28;20578;-68
2022/03/15 00:50:23;;;;;;;1.60;1.52;;;2.40;99.90;;;;;;4981672;28;20054;-68
2022/03/15 00:52:50;;;;;;;1.63;1.52;;;2.40;99.90;;;;;;4968196;28;20404;-68
2022/03/15 00:55:16;;;;;;;1.15;1.10;;;2.30;99.90;;;;;;4950447;28;20051;-68
2022/03/15 00:57:42;;;;;;;0.50;0.50;;;2.30;99.90;;;;;;4949884;28;20069;-68
2022/03/15 01:00:11;;;;;;;0.88;0.88;;;2.30;99.90;;;;;;4984087;28;20452;-68
2022/03/15 01:02:37;;;;;;;0.40;0.40;;;2.30;99.90;;;;;;4969365;28;20070;-68
2022/03/15 01:05:04;;;;;;;0.50;0.50;;;2.30;99.90;;;;;;4955991;28;20047;-68
2022/03/15 01:07:29;;;;;;;1.33;1.10;;;2.30;99.90;;;;;;4950847;28;20619;-68
2022/03/15 01:09:55;;;;;;;0.40;0.40;;;2.30;99.90;;;;;;4964162;28;20059;-68
2022/03/15 01:12:20;;;;;;;0.60;0.60;;;2.30;99.90;;;;;;4968271;28;20055;-68
2022/03/15 01:14:46;;;;;;;0.30;0.30;;;2.30;99.90;;;;;;4959339;28;20071;-68
2022/03/15 01:17:12;;;;;;;1.50;1.42;;;2.30;99.90;;;;;;4945551;28;20097;-68
2022/03/15 01:19:37;;;;;;;0.50;0.50;;;2.30;99.90;;;;;;4962127;28;20074;-68
2022/03/15 01:22:03;;;;;;;2.88;0.88;;;2.30;99.90;;;;;;4968603;28;20042;-68
2022/03/15 01:24:29;;;;;;;0.55;0.55;;;2.30;99.90;;;;;;4946516;28;20050;-68
2022/03/15 01:26:56;;;;;;;0.70;0.70;;;2.30;99.90;;;;;;4968588;28;20054;-68
2022/03/15 01:29:24;;;;;;;1.13;0.90;;;2.40;99.90;;;;;;4951628;28;20097;-68
2022/03/15 01:31:50;;;;;;;0.38;0.38;;;2.40;99.90;;;;;;4965731;28;20389;-68
2022/03/15 01:34:16;;;;;;;0.50;0.50;;;2.40;99.90;;;;;;4939066;28;20136;-68
2022/03/15 01:36:42;;;;;;;0.82;0.75;;;2.30;99.90;;;;;;4967616;28;20118;-68
2022/03/15 01:39:08;;;;;;;0.40;0.40;;;2.30;99.90;;;;;;4937171;29;20376;-68
2022/03/15 01:41:35;;;;;;;0.55;0.55;;;2.30;99.90;;;;;;4980653;28;20055;-68
2022/03/15 01:44:03;;;;;;;2.05;1.95;;;2.30;99.90;;;;;;4938605;28;20047;-68
2022/03/15 01:46:29;;;;;;;0.60;0.60;;;2.30;99.90;;;;;;4967631;28;20395;-68
2022/03/15 01:48:55;;;;;;;0.40;0.40;;;2.30;99.90;;;;;;4949852;28;20093;-68
2022/03/15 01:51:21;;;;;;;2.72;1.35;;;2.30;99.90;;;;;;4966615;28;20092;-68
2022/03/15 01:53:47;;;;;;;2.88;1.52;;;2.30;99.90;;;;;;4959787;28;20055;-68
2022/03/15 01:56:13;;;;;;;1.20;1.10;;;2.30;99.90;;;;;;4968533;28;20046;-68
2022/03/15 01:58:38;;;;;;;0.75;0.75;;;2.50;99.90;;;;;;4975752;28;20380;-68
2022/03/15 02:01:04;;;;;;;0.35;0.35;;;2.50;99.90;;;;;;4966287;28;20104;-68
2022/03/15 02:03:30;;;;;;;1.50;1.40;;;2.60;99.90;;;;;;4966927;28;20082;-68
2022/03/15 02:05:56;;;;;;;1.67;1.58;;;2.70;99.90;;;;;;4965050;28;20185;-68
2022/03/15 02:08:21;;;;;;;1.88;1.77;;;2.80;99.90;;;;;;4956760;28;20549;-68
2022/03/15 02:10:47;;;;;;;0.93;0.93;;;2.90;99.90;;;;;;4963924;28;20082;-68
2022/03/15 02:13:12;;;;;;;0.50;0.50;;;3.00;99.90;;;;;;4933522;29;20057;-68
2022/03/15 02:15:38;;;;;;;0.60;0.60;;;3.10;99.90;;;;;;4983401;28;20047;-68
2022/03/15 02:18:05;;;;;;;1.63;1.38;;;3.20;99.90;;;;;;4950886;28;20043;-68
2022/03/15 02:20:31;;;;;;;0.75;0.75;;;3.30;99.90;;;;;;4976550;28;20073;-68
2022/03/15 02:22:57;;;;;;;3.10;1.00;;;3.30;99.90;;;;;;4967064;28;20126;-68
2022/03/15 02:25:24;;;;;;;2.00;1.90;;;3.40;99.90;;;;;;4949211;28;20126;-68
2022/03/15 02:27:51;;;;;;;1.00;1.00;;;3.40;99.90;;;;;;4954509;28;20773;-68
2022/03/15 02:30:17;;;;;;;0.40;0.40;;;3.50;99.90;;;;;;4966604;28;20479;-68
2022/03/15 02:32:44;;;;;;;0.40;0.40;;;3.50;99.90;;;;;;4965752;28;20098;-68
2022/03/15 02:35:10;;;;;;;0.98;0.98;;;3.60;99.90;;;;;;4967214;28;20563;-68
2022/03/15 02:37:36;;;;;;;0.30;0.30;;;3.60;99.90;;;;;;4949923;28;20043;-68
2022/03/15 02:40:03;;;;;;;0.40;0.40;;;3.60;99.90;;;;;;4950886;28;20503;-68
2022/03/15 02:42:29;;;;;;;0.30;0.30;;;3.60;99.90;;;;;;4947498;28;20038;-68
2022/03/15 02:44:54;;;;;;;1.40;1.30;;;3.70;99.90;;;;;;4980124;28;20110;-68
2022/03/15 02:47:20;;;;;;;0.30;0.30;;;3.60;99.90;;;;;;4981133;28;20058;-68
2022/03/15 02:49:46;;;;;;;1.67;1.40;;;3.70;99.90;;;;;;4949201;28;20174;-68
2022/03/15 02:52:11;;;;;;;4.35;4.00;;;3.70;99.90;;;;;;4944281;28;20507;-68
2022/03/15 02:54:41;;;;;;;1.88;1.73;;;3.90;99.90;;;;;;4947772;28;20069;-68
2022/03/15 02:57:12;;;;;;;0.60;0.60;;;3.90;99.90;;;;;;4980743;28;20056;-68
2022/03/15 02:59:39;;;;;;;0.45;0.45;;;4.00;99.90;;;;;;4955948;28;20038;-68
2022/03/15 03:02:06;;;;;;;1.67;1.58;;;4.10;99.90;;;;;;4962488;28;20396;-68
2022/03/15 03:04:32;;;;;;;0.30;0.30;;;4.10;99.90;;;;;;4981283;28;20113;-68
2022/03/15 03:07:00;;;;;;;1.70;1.58;;;4.20;99.90;;;;;;4961983;28;20046;-68
2022/03/15 03:09:26;;;;;;;1.15;1.15;;;4.20;99.90;;;;;;4963783;28;20090;-68
2022/03/15 03:11:51;;;;;;;0.70;0.70;;;4.20;99.90;;;;;;4963919;28;20077;-68
2022/03/15 03:14:21;;;;;;;1.05;1.05;;;4.20;99.90;;;;;;4948030;28;20091;-69
2022/03/15 03:16:46;;;;;;;1.58;1.48;;;4.20;99.90;;;;;;4979849;28;20047;-68
2022/03/15 03:19:12;;;;;;;2.22;2.13;;;4.20;99.90;;;;;;4936501;28;20046;-68
2022/03/15 03:21:38;;;;;;;6.15;3.50;;;4.30;99.90;;;;;;4949750;28;20039;-68
2022/03/15 03:24:08;;;;;;;2.60;1.55;;;4.40;99.90;;;;;;4942736;28;20547;-67
2022/03/15 03:26:37;;;;;;;0.98;0.98;;;4.50;99.90;;;;;;4980904;28;20031;-70
2022/03/15 03:29:06;;;;;;;0.50;0.50;;;4.60;99.90;;;;;;4947416;28;20047;-68
2022/03/15 03:31:32;;;;;;;0.30;0.30;;;4.60;99.90;;;;;;4963296;28;20039;-68
2022/03/15 03:33:58;;;;;;;5.20;1.20;;;4.70;99.90;;;;;;4948619;28;20408;-68
2022/03/15 03:36:24;;;;;;;2.28;1.92;;;4.80;99.90;;;;;;4964626;28;20043;-68
2022/03/15 03:38:50;;;;;;;0.50;0.50;;;4.80;99.90;;;;;;4947771;28;20079;-68
2022/03/15 03:41:16;;;;;;;0.38;0.38;;;4.90;99.90;;;;;;4962983;28;20055;-68
2022/03/15 03:43:41;;;;;;;2.55;2.08;;;4.90;99.90;;;;;;4945938;28;20042;-68
2022/03/15 03:46:07;;;;;;;0.90;0.90;;;4.90;99.90;;;;;;4978556;28;20054;-68
2022/03/15 03:48:33;;;;;;;1.45;1.13;;;4.90;99.90;;;;;;4981013;28;20050;-68
2022/03/15 03:50:58;;;;;;;37.28;5.72;;;5.00;99.90;;;;;;4966091;28;20061;-68
2022/03/15 03:53:24;;;;;;;0.93;0.93;;;5.00;99.90;;;;;;4960375;28;20043;-68
2022/03/15 03:55:50;;;;;;;7.88;2.92;;;5.00;99.90;;;;;;4978620;28;20101;-68
2022/03/15 03:58:16;;;;;;;1.60;1.50;;;5.10;99.90;;;;;;4948948;28;20035;-68
2022/03/15 04:00:41;;;;;;;1.25;1.17;;;5.10;99.90;;;;;;4961047;28;20117;-68
2022/03/15 04:03:07;;;;;;;2.25;2.05;;;5.20;99.90;;;;;;4955163;28;20816;-68
2022/03/15 04:05:36;;;;;;;4.82;2.92;;;5.30;99.90;;;;;;4968644;28;20101;-68
2022/03/15 04:08:03;;;;;;;1.63;1.52;;;5.30;99.90;;;;;;4963211;28;20079;-68
2022/03/15 04:10:30;;;;;;;8.70;2.13;;;5.30;99.90;;;;;;4959505;28;20047;-68
2022/03/15 04:12:56;;;;;;;2.15;1.83;;;5.40;99.90;;;;;;4968722;28;20054;-68
2022/03/15 04:15:23;;;;;;;14.90;5.55;;;5.40;99.90;;;;;;4967943;28;20069;-68
2022/03/15 04:17:50;;;;;;;4.82;2.67;;;5.50;99.90;;;;;;4948387;28;20053;-68
2022/03/15 04:20:16;;;;;;;21.52;2.70;;;5.50;99.90;;;;;;4965653;28;20038;-68
2022/03/15 04:22:42;;;;;;;1.58;1.48;;;5.50;99.90;;;;;;4963198;28;20043;-68
2022/03/15 04:25:09;;;;;;;1.90;1.67;;;5.60;99.90;;;;;;4967687;28;20054;-68
2022/03/15 04:27:35;;;;;;;3.22;2.22;;;5.60;99.90;;;;;;4947069;28;20046;-68
2022/03/15 04:30:19;;;;;;;3.88;2.92;;;5.60;99.90;;;;;;4962110;28;20058;-70
2022/03/15 04:33:10;;;;;;;2.63;1.55;;;5.70;99.90;;;;;;4924080;29;20131;-70
2022/03/15 04:35:35;;;;;;;1.42;1.33;;;5.70;99.90;;;;;;4929162;29;20275;-70
2022/03/15 04:38:01;;;;;;;12.65;3.60;;;5.70;99.90;;;;;;4908500;29;20500;-70
2022/03/15 04:40:27;;;;;;;1.45;1.35;;;5.70;99.90;;;;;;4890546;29;20724;-70
2022/03/15 04:42:53;;;;;;;3.05;2.75;;;5.70;99.90;;;;;;4909595;29;20587;-70
2022/03/15 04:45:19;;;;;;;4.60;4.20;;;5.70;99.90;;;;;;4904597;29;20390;-70
2022/03/15 04:47:46;;;;;;;1.83;1.70;;;5.70;99.90;;;;;;4925293;29;20059;-70
2022/03/15 04:50:12;;;;;;;3.58;2.53;;;5.70;99.90;;;;;;4911735;29;20251;-70
2022/03/15 04:52:38;;;;;;;8.77;3.75;;;5.80;99.90;;;;;;4924429;29;20048;-70
2022/03/15 04:55:05;;;;;;;1.55;1.45;;;5.80;99.90;;;;;;4908947;29;20492;-70
2022/03/15 04:57:31;;;;;;;2.35;1.58;;;5.80;99.90;;;;;;4904413;29;20092;-70
2022/03/15 05:00:29;;;;;;;2.25;1.90;;;5.80;99.90;;;;;;4908745;29;20068;-70
2022/03/15 05:02:55;;;;;;;3.22;2.30;;;5.80;99.90;;;;;;4891952;29;20628;-70
2022/03/15 05:05:20;;;;;;;0.40;0.40;;;5.80;99.90;;;;;;4875009;29;20123;-70
2022/03/15 05:11:14;;;;;;;1.55;1.45;;;5.70;99.90;;;;;;4920715;29;20225;-70
2022/03/15 05:13:45;;;;;;;1.58;1.48;;;5.70;99.90;;;;;;4910985;29;20119;-70
2022/03/15 05:16:18;;;;;;;2.97;2.70;;;5.70;99.90;;;;;;4905775;29;20095;-70
2022/03/15 05:18:50;;;;;;;2.35;1.40;;;5.70;99.90;;;;;;4928590;29;20040;-70
2022/03/15 05:21:16;;;;;;;1.77;1.65;;;5.70;99.90;;;;;;4908067;29;20059;-70
2022/03/15 05:23:43;;;;;;;2.65;2.15;;;5.70;99.90;;;;;;4908996;29;20099;-70
2022/03/15 05:26:09;;;;;;;0.32;0.32;;;5.60;99.90;;;;;;4899417;29;20086;-70
2022/03/15 05:28:35;;;;;;;0.70;0.70;;;5.60;99.90;;;;;;4911753;29;20055;-70
2022/03/15 05:31:00;;;;;;;9.25;4.60;;;5.60;99.90;;;;;;4909971;29;20622;-70
2022/03/15 05:33:28;;;;;;;5.68;4.00;;;5.50;99.90;;;;;;4910675;29;20481;-70
2022/03/15 05:35:54;;;;;;;0.93;0.93;;;5.50;99.90;;;;;;4912189;29;20095;-70
2022/03/15 05:38:19;;;;;;;4.90;3.38;;;5.50;99.90;;;;;;4901419;29;20087;-70
2022/03/15 05:40:45;;;;;;;7.22;3.30;;;5.50;99.90;;;;;;4930796;29;20051;-70
2022/03/15 05:43:11;;;;;;;3.70;1.27;;;5.50;99.90;;;;;;4912035;29;20063;-70
2022/03/15 05:45:37;;;;;;;4.05;2.85;;;5.50;99.90;;;;;;4929951;29;20055;-70
2022/03/15 05:48:03;;;;;;;2.67;2.47;;;5.40;99.90;;;;;;4937559;28;20051;-70
2022/03/15 05:50:29;;;;;;;0.63;0.63;;;5.40;99.90;;;;;;4967359;28;20066;-70
2022/03/15 05:52:54;;;;;;;2.22;1.58;;;5.40;99.90;;;;;;4957642;28;20073;-70
2022/03/15 05:56:14;;;;;;;1.63;1.45;;;5.40;99.90;;;;;;4958719;28;20043;-70
2022/03/15 05:58:53;;;;;;;1.43;1.33;;;5.40;99.90;;;;;;4932218;28;20083;-68
2022/03/15 06:01:19;;;;;;;2.97;2.78;;;5.40;99.90;;;;;;4943603;28;20077;-68
2022/03/15 06:03:45;;;;;;;3.63;2.03;;;5.40;99.90;;;;;;4942880;28;20049;-68
2022/03/15 06:06:10;;;;;;;4.55;2.58;;;5.40;99.90;;;;;;4947635;28;20062;-68
2022/03/15 06:08:37;;;;;;;4.35;2.20;;;5.40;99.90;;;;;;4960807;28;20058;-68
2022/03/15 06:11:03;;;;;;;1.85;1.75;;;5.30;99.90;;;;;;4930907;28;20082;-68
2022/03/15 06:13:29;;;;;;;5.03;4.10;;;5.30;99.90;;;;;;4937803;29;20143;-68
2022/03/15 06:15:54;;;;;;;2.22;2.08;;;5.30;99.90;;;;;;4934137;28;20975;-68
2022/03/15 06:18:20;;;;;;;7.05;3.08;;;5.30;99.90;;;;;;4934228;29;20083;-68
2022/03/15 06:20:46;;;;;;;0.88;0.88;;;5.30;99.90;;;;;;4920329;28;20147;-68
2022/03/15 06:23:12;;;;;;;1.05;1.05;;;5.30;99.90;;;;;;4947378;28;20126;-68
2022/03/15 06:25:37;;;;;;;0.47;0.47;;;5.30;99.90;;;;;;4965388;28;20072;-68
2022/03/15 06:28:03;;;;;;;0.60;0.60;;;5.30;99.90;;;;;;4931273;28;20527;-68
2022/03/15 06:30:30;;;;;;;0.93;0.93;;;5.30;99.90;;;;;;4948569;28;20563;-68
2022/03/15 06:32:56;;;;;;;1.75;0.82;;;5.30;99.90;;;;;;4966819;28;20059;-68
2022/03/15 06:35:21;;;;;;;0.30;0.30;;;5.40;99.90;;;;;;4965863;28;20061;-68
2022/03/15 06:37:50;;;;;;;1.40;1.30;;;5.40;99.90;;;;;;4966793;28;20043;-68
2022/03/15 06:40:21;;;;;;;1.17;1.17;;;5.50;99.90;;;;;;4957560;28;20150;-68
2022/03/15 06:42:47;;;;;;;3.70;2.85;;;5.50;99.90;;;;;;4970962;28;20051;-68
2022/03/15 06:45:12;;;;;;;2.90;0.85;;;5.60;99.90;;;;;;4963067;28;20066;-68
2022/03/15 06:47:39;;;;;;;0.68;0.68;;;5.60;99.90;;;;;;4952432;28;20091;-68
2022/03/15 06:50:10;;;;;;;0.40;0.40;;;5.70;99.90;;;;;;4958258;28;20083;-68
2022/03/15 06:52:38;;;;;;;6.35;2.83;;;5.70;99.90;;;;;;4951003;28;20419;-68
2022/03/15 06:55:04;;;;;;;0.50;0.50;;;5.70;99.90;;;;;;4951337;28;20446;-68
2022/03/15 06:57:34;;;;;;;2.38;2.28;;;5.70;99.90;;;;;;4954086;28;20043;-68
2022/03/15 07:00:21;;;;;;;1.05;1.05;;;5.80;99.90;;;;;;4966753;28;20100;-68
2022/03/15 07:02:47;;;;;;;1.20;1.00;;;5.80;99.90;;;;;;4941826;28;20047;-68
2022/03/15 07:05:12;;;;;;;0.73;0.73;;;5.90;99.90;;;;;;4959875;28;20054;-68
2022/03/15 07:07:39;;;;;;;3.50;2.50;;;6.00;99.90;;;;;;4947391;28;20153;-68
2022/03/15 07:10:06;;;;;;;1.27;1.17;;;6.00;99.90;;;;;;4947391;28;20086;-68
2022/03/15 07:12:34;;;;;;;1.55;1.45;;;6.00;99.90;;;;;;4958960;28;20043;-68
2022/03/15 07:15:00;;;;;;;1.58;1.48;;;6.10;99.90;;;;;;4950338;28;20047;-68
2022/03/15 07:17:27;;;;;;;1.08;1.08;;;6.10;99.90;;;;;;4928850;28;20203;-68
2022/03/15 07:19:52;;;;;;;0.80;0.80;;;6.20;99.90;;;;;;4965972;28;20031;-68
2022/03/15 07:22:18;;;;;;;3.60;3.03;;;6.20;99.90;;;;;;4953373;28;20042;-68
2022/03/15 07:24:43;;;;;;;0.85;0.85;;;6.30;99.90;;;;;;4931213;29;20083;-68
2022/03/15 07:27:09;;;;;;;4.55;3.20;;;6.30;99.90;;;;;;4955639;28;20042;-68
2022/03/15 07:29:35;;;;;;;1.45;1.40;;;6.40;99.90;;;;;;4950752;28;20047;-68
2022/03/15 07:32:00;;;;;;;0.55;0.55;;;6.50;99.90;;;;;;4963002;28;20117;-68
2022/03/15 07:34:26;;;;;;;0.43;0.43;;;6.50;99.90;;;;;;4936443;29;20462;-68
2022/03/15 07:36:52;;;;;;;0.95;0.95;;;6.60;99.90;;;;;;4976332;28;20051;-68
2022/03/15 07:39:18;;;;;;;0.20;0.20;;;6.60;99.90;;;;;;4972764;28;20054;-68
2022/03/15 07:41:45;;;;;;;7.22;3.95;;;6.70;99.90;;;;;;4987121;28;20894;-68
2022/03/15 07:44:11;;;;;;;16.35;5.25;;;6.70;99.90;;;;;;4969861;28;20499;-68
2022/03/15 07:46:38;;;;;;;0.77;0.77;;;6.80;99.90;;;;;;4969724;28;20400;-68
2022/03/15 07:49:04;;;;;;;2.53;2.33;;;6.80;99.90;;;;;;4971719;28;20047;-68
2022/03/15 07:51:30;;;;;;;1.77;1.67;;;6.80;99.90;;;;;;4971994;28;20066;-68
2022/03/15 07:53:56;;;;;;;1.75;1.65;;;6.90;99.90;;;;;;4972056;28;20046;-68
2022/03/15 07:56:22;;;;;;;3.55;2.78;;;6.90;99.90;;;;;;4964181;28;20122;-68
2022/03/15 07:58:48;;;;;;;7.22;4.13;;;7.00;99.90;;;;;;4962197;28;20042;-68
2022/03/15 08:01:14;;;;;;;2.45;1.45;;;7.00;99.90;;;;;;4953086;28;20050;-68
2022/03/15 08:03:39;;;;;;;3.05;2.72;;;7.00;99.90;;;;;;4965262;28;20034;-70
2022/03/15 08:06:05;;;;;;;3.05;2.75;;;7.10;99.90;;;;;;4966824;28;20451;-69
2022/03/15 08:08:32;;;;;;;1.38;1.27;;;7.10;99.90;;;;;;4932419;28;20649;-69
2022/03/15 08:10:57;;;;;;;5.75;1.85;;;7.20;99.90;;;;;;4961669;28;20353;-68
2022/03/15 08:13:23;;;;;;;3.63;2.95;;;7.20;99.90;;;;;;4923578;28;20054;-69
2022/03/15 08:15:49;;;;;;;4.95;2.85;;;7.20;99.90;;;;;;4967024;28;20038;-69
2022/03/15 08:18:14;;;;;;;11.63;6.03;;;7.30;99.90;;;;;;4943597;28;20664;-68
2022/03/15 08:20:41;;;;;;;3.65;2.50;;;7.30;99.90;;;;;;4954370;28;20043;-68
2022/03/15 08:23:23;;;;;;;3.92;2.85;;;7.40;99.90;;;;;;4939293;28;20066;-70
2022/03/15 08:25:49;;;;;;;6.82;3.65;;;7.40;99.90;;;;;;4968682;28;20043;-70
2022/03/15 08:28:15;;;;;;;5.90;4.07;;;7.50;99.90;;;;;;4937904;28;20054;-67
2022/03/15 08:30:40;;;;;;;0.93;0.90;;;7.50;99.90;;;;;;4952596;28;20455;-68
2022/03/15 08:33:06;;;;;;;2.20;2.05;;;7.60;99.90;;;;;;4955167;28;20038;-68
2022/03/15 08:35:32;;;;;;;4.90;3.45;;;7.70;99.90;;;;;;4952940;29;20047;-68
2022/03/15 08:37:57;;;;;;;14.43;7.68;;;7.80;99.90;;;;;;4965107;28;20047;-68
2022/03/15 08:40:23;;;;;;;4.57;2.63;;;7.80;99.90;;;;;;4976065;28;20065;-69
2022/03/15 08:42:49;;;;;;;2.53;2.33;;;7.90;99.90;;;;;;4966525;28;20510;-69
2022/03/15 08:45:15;;;;;;;7.15;5.63;;;8.00;99.90;;;;;;4965463;28;20125;-69
2022/03/15 08:47:41;;;;;;;4.32;3.90;;;8.10;99.90;;;;;;4948602;28;20042;-68
2022/03/15 08:50:09;;;;;;;2.47;1.50;;;8.20;99.90;;;;;;4964302;28;20046;-68
2022/03/15 08:52:35;;;;;;;1.77;1.67;;;8.20;99.90;;;;;;4982598;28;20046;-69
2022/03/15 08:55:02;;;;;;;0.77;0.77;;;8.30;99.90;;;;;;4958954;28;20125;-69
2022/03/15 08:57:28;;;;;;;3.42;2.80;;;8.40;99.90;;;;;;4982307;28;20513;-69
2022/03/15 08:59:54;;;;;;;2.83;2.42;;;8.50;99.90;;;;;;4967604;28;20062;-69
2022/03/15 09:02:20;;;;;;;6.55;3.65;;;8.60;99.90;;;;;;4967651;28;20316;-68
2022/03/15 09:04:51;;;;;;;7.65;3.53;;;8.60;99.90;;;;;;4944745;28;20120;-69
2022/03/15 09:07:16;;;;;;;9.52;5.47;;;8.70;99.90;;;;;;4952894;28;20101;-69
2022/03/15 09:09:42;;;;;;;14.27;7.38;;;8.80;99.90;;;;;;4966523;28;20062;-69
2022/03/15 09:12:08;;;;;;;19.80;8.05;;;8.80;99.90;;;;;;4968698;28;20150;-69
2022/03/15 09:14:34;;;;;;;9.05;3.92;;;8.90;99.90;;;;;;4962847;28;20038;-69
2022/03/15 09:17:00;;;;;;;7.35;5.35;;;8.90;99.90;;;;;;4971563;28;20046;-69
2022/03/15 09:19:26;;;;;;;14.38;5.45;;;8.90;99.90;;;;;;4975403;28;20128;-69
2022/03/15 09:21:52;;;;;;;6.97;4.85;;;9.00;99.90;;;;;;4970355;28;20074;-69
2022/03/15 09:24:17;;;;;;;8.82;5.10;;;9.00;99.90;;;;;;4984260;28;20078;-69
2022/03/15 09:26:44;;;;;;;5.68;3.50;;;9.00;99.90;;;;;;4967776;28;20045;-69
2022/03/15 09:29:10;;;;;;;3.13;2.88;;;9.00;99.90;;;;;;4986916;28;20042;-69
2022/03/15 09:31:36;;;;;;;8.55;5.65;;;9.00;99.90;;;;;;4967594;28;20035;-69
2022/03/15 09:34:02;;;;;;;8.07;4.95;;;9.00;99.90;;;;;;4962668;28;20045;-69
2022/03/15 09:36:28;;;;;;;8.75;3.35;;;9.00;99.90;;;;;;4964717;28;20126;-69
2022/03/15 09:39:19;;;;;;;10.57;6.38;;;9.10;99.90;;;;;;4946817;28;20060;-69
2022/03/15 09:41:50;;;;;;;4.75;2.10;;;9.20;99.90;;;;;;4968966;28;20065;-69
2022/03/15 09:44:18;;;;;;;1.42;1.33;;;9.30;99.90;;;;;;4937030;28;20050;-69
2022/03/15 09:46:50;;;;;;;6.75;2.50;;;9.40;99.90;;;;;;4964442;28;20058;-69
2022/03/15 09:49:19;;;;;;;6.10;4.40;;;9.50;99.90;;;;;;4969462;28;20523;-69
2022/03/15 09:51:48;;;;;;;1.33;1.33;;;9.60;99.90;;;;;;4962772;28;20294;-69
2022/03/15 09:54:15;;;;;;;15.93;2.97;;;9.80;99.90;;;;;;4946694;28;20472;-69
2022/03/15 09:56:41;;;;;;;10.02;6.13;;;9.90;99.90;;;;;;4974167;28;20046;-69
2022/03/15 09:59:19;;;;;;;0.63;0.63;;;10.00;99.90;;;;;;4963956;28;20046;-69
2022/03/15 10:01:47;;;;;;;3.05;2.35;;;10.10;99.90;;;;;;4956194;28;20070;-69
2022/03/15 10:04:13;;;;;;;3.67;3.22;;;10.10;99.90;;;;;;4970890;28;20042;-69
2022/03/15 10:06:39;;;;;;;6.30;3.45;;;10.20;99.90;;;;;;4980395;28;20092;-69
2022/03/15 10:09:08;;;;;;;8.55;3.40;;;10.30;99.90;;;;;;4969584;28;20042;-69
2022/03/15 10:11:35;;;;;;;0.63;0.63;;;10.30;99.90;;;;;;4971014;28;20053;-69
2022/03/15 10:14:01;;;;;;;4.88;3.70;;;10.30;99.90;;;;;;4967363;28;20125;-69
2022/03/15 10:16:43;;;;;;;8.80;5.03;;;10.30;99.90;;;;;;4968910;28;20062;-69
2022/03/15 10:19:11;;;;;;;3.58;2.60;;;10.30;99.90;;;;;;4949710;28;20046;-69
2022/03/15 10:21:44;;;;;;;2.42;2.10;;;10.30;99.90;;;;;;4952390;28;20074;-69
2022/03/15 10:24:10;;;;;;;7.72;5.00;;;10.30;99.90;;;;;;4980701;28;20065;-69
2022/03/15 10:26:40;;;;;;;8.18;4.65;;;10.30;99.90;;;;;;4959682;28;20046;-69
2022/03/15 10:32:18;;;;;;;4.72;4.30;;;10.30;99.90;;;;;;4926922;28;20051;-68
2022/03/15 10:34:47;;;;;;;3.95;3.08;;;10.20;99.90;;;;;;4927770;29;20499;-69
2022/03/15 10:37:39;;;;;;;9.50;4.68;;;10.20;99.90;;;;;;4849920;29;20053;-69
2022/03/15 10:40:05;;;;;;;6.95;5.25;;;10.20;99.90;;;;;;4848866;29;20124;-69
2022/03/15 10:42:31;;;;;;;12.25;6.93;;;10.10;99.90;;;;;;4865261;29;20052;-69
2022/03/15 10:44:58;;;;;;;15.45;6.20;;;10.00;99.90;;;;;;4867940;29;20053;-69
2022/03/15 10:47:24;;;;;;;7.03;5.05;;;10.00;99.90;;;;;;4868417;29;20185;-69
2022/03/15 10:53:07;;;;;;;18.23;9.55;;;9.80;99.90;;;;;;4842212;29;20935;-70
2022/03/15 10:55:34;;;;;;;8.00;4.28;;;9.70;99.90;;;;;;4858853;29;20550;-68
2022/03/15 10:58:05;;;;;;;14.85;7.53;;;9.60;99.90;;;;;;4850780;29;20053;-68
2022/03/15 11:00:35;;;;;;;9.27;4.95;;;9.60;99.90;;;;;;4853081;29;20841;-68
2022/03/15 11:03:02;;;;;;;4.45;3.03;;;9.50;99.90;;;;;;4870246;29;20533;-68
2022/03/15 11:05:35;;;;;;;7.90;4.57;;;9.40;99.90;;;;;;4869969;29;20049;-68
2022/03/15 11:08:13;;;;;;;6.95;5.07;;;9.30;99.90;;;;;;4848414;29;20060;-70
2022/03/15 11:10:40;;;;;;;7.50;3.60;;;9.30;99.90;;;;;;4882080;29;20052;-68
2022/03/15 11:13:09;;;;;;;10.50;4.53;;;9.30;99.90;;;;;;4864672;29;20195;-68
2022/03/15 11:15:44;;;;;;;5.07;3.47;;;9.20;99.90;;;;;;4969014;28;20054;-68
2022/03/15 11:18:11;;;;;;;8.43;4.45;;;9.10;99.90;;;;;;4959692;28;20038;-68
2022/03/15 11:20:54;;;;;;;9.32;2.97;;;9.10;99.90;;;;;;4971114;28;20627;-68
2022/03/15 11:23:23;;;;;;;10.02;3.90;;;9.10;99.90;;;;;;4964839;28;20093;-68
2022/03/15 11:26:00;;;;;;;1.27;1.25;;;9.10;99.90;;;;;;4956558;28;20569;-68
2022/03/15 11:28:28;;;;;;;9.57;3.65;;;9.10;99.90;;;;;;4979967;28;20046;-68
2022/03/15 11:30:56;;;;;;;4.57;3.83;;;9.10;99.90;;;;;;4967506;28;20043;-68
2022/03/15 11:33:23;;;;;;;3.63;1.75;;;9.10;99.90;;;;;;4956208;28;20089;-68
2022/03/15 11:35:49;;;;;;;7.38;2.95;;;9.10;99.90;;;;;;4981105;28;20050;-68
2022/03/15 11:38:14;;;;;;;1.70;1.33;;;9.20;99.90;;;;;;4954455;28;20045;-68
2022/03/15 11:40:44;;;;;;;2.45;1.80;;;9.20;99.90;;;;;;4978197;28;20777;-68
2022/03/15 11:43:47;;;;;;;1.45;1.35;;;9.20;99.90;;;;;;4968412;28;20054;-68
2022/03/15 11:46:27;;;;;;;2.08;1.88;;;9.20;99.90;;;;;;4950097;28;20052;-68
2022/03/15 11:49:29;;;;;;;6.28;2.85;;;9.20;99.90;;;;;;4963905;28;20046;-68
2022/03/15 11:52:25;;;;;;;2.05;1.83;;;9.20;99.90;;;;;;4983885;28;20082;-68
2022/03/15 11:55:12;;;;;;;0.68;0.68;;;9.20;99.90;;;;;;4952347;28;20117;-68
2022/03/15 11:58:03;;;;;;;1.67;1.23;;;9.30;99.90;;;;;;4975966;28;20047;-68
2022/03/15 12:00:44;;;;;;;3.83;2.08;;;9.40;99.90;;;;;;4959058;28;20763;-68
2022/03/15 12:03:10;;;;;;;2.92;2.65;;;9.40;99.90;;;;;;4944455;28;20073;-68
2022/03/15 12:05:44;;;;;;;2.28;1.90;;;9.50;99.90;;;;;;4947364;28;20046;-68
2022/03/15 12:08:51;;;;;;;0.80;0.80;;;9.60;99.90;;;;;;4943467;28;20065;-69
2022/03/15 12:11:32;;;;;;;7.70;4.50;;;9.80;99.90;;;;;;4960580;28;20100;-68
2022/03/15 12:14:11;;;;;;;1.52;1.42;;;10.00;99.90;;;;;;4979923;28;20054;-69
2022/03/15 12:16:41;;;;;;;4.82;2.33;;;10.20;99.90;;;;;;4958038;28;20039;-68
2022/03/15 12:19:35;;;;;;;4.10;3.50;;;10.40;99.90;;;;;;4956810;28;20043;-69
2022/03/15 12:22:03;;;;;;;7.38;4.65;;;10.60;99.90;;;;;;4956880;28;20124;-69
2022/03/15 12:24:28;;;;;;;6.07;3.15;;;10.70;99.90;;;;;;4949810;28;20039;-69
2022/03/15 12:27:03;;;;;;;1.15;1.15;;;10.70;99.90;;;;;;4959493;28;20177;-69
2022/03/15 12:32:38;;;;;;;5.47;3.67;;;11.10;99.90;;;;;;4914309;29;20699;-69
2022/03/15 12:35:04;;;;;;;1.27;1.20;;;11.20;99.90;;;;;;4902426;29;20071;-69
2022/03/15 12:37:36;;;;;;;9.32;3.78;;;11.30;99.90;;;;;;4901092;29;20051;-69
2022/03/15 12:40:05;;;;;;;1.90;1.77;;;11.50;99.90;;;;;;4901813;29;20056;-69
2022/03/15 12:42:32;;;;;;;9.52;3.95;;;11.60;99.90;;;;;;4888962;29;20059;-69
2022/03/15 12:45:13;;;;;;;11.27;4.75;;;11.70;99.90;;;;;;4897622;29;20146;-69
2022/03/15 12:47:41;;;;;;;2.40;2.20;;;11.90;99.90;;;;;;4888807;29;20670;-69
2022/03/15 12:50:10;;;;;;;3.53;2.45;;;12.00;99.90;;;;;;4883816;29;20200;-69
2022/03/15 12:52:43;;;;;;;3.28;2.00;;;12.20;99.90;;;;;;4892416;29;20040;-69
2022/03/15 12:55:20;;;;;;;2.65;2.10;;;12.40;99.90;;;;;;4877750;29;20055;-69
2022/03/15 12:57:48;;;;;;;7.82;3.60;;;12.60;99.90;;;;;;4910899;29;20444;-69
2022/03/15 13:00:15;;;;;;;0.82;0.80;;;12.70;99.90;;;;;;4911527;29;20056;-69
2022/03/15 13:02:42;;;;;;;10.43;3.17;;;12.70;99.90;;;;;;4911714;29;20059;-69
2022/03/15 13:05:17;;;;;;;1.98;1.38;;;12.80;99.90;;;;;;4893509;29;20046;-69
2022/03/15 13:07:46;;;;;;;2.95;1.48;;;12.90;99.90;;;;;;4890308;29;20044;-69
2022/03/15 13:10:13;;;;;;;3.25;2.15;;;12.90;99.90;;;;;;4956900;28;20070;-69
2022/03/15 13:12:41;;;;;;;1.73;1.45;;;13.00;99.90;;;;;;4964636;28;20082;-69
2022/03/15 13:15:08;;;;;;;9.57;2.08;;;13.00;99.90;;;;;;4964730;28;20042;-69